| time (UTC) | temp C | wind direction | speed KPH | gust KPH | rain 1hr cm | rain 24hr cm | rain mn cm | humidity % | barometer mb |
| 20260506222127 | 11 | 312 | 3.2 | 3.2 | 0.00 | 1.42 | 1.42 | 89 | 1007.3 |
| 20260506221625 | 11 | 290 | 3.2 | 4.8 | 0.00 | 1.42 | 1.42 | 88 | 1007.2 |
| 20260506221123 | 11 | 310 | 3.2 | 4.8 | 0.00 | 1.42 | 1.42 | 87 | 1007.0 |
| 20260506220620 | 11 | 320 | 4.8 | 4.8 | 0.00 | 1.42 | 1.42 | 87 | 1007.0 |
| 20260506220115 | 12 | 301 | 3.2 | 3.2 | 0.00 | 1.42 | 1.42 | 89 | 1006.7 |
| 20260506215612 | 12 | 310 | 4.8 | 4.8 | 0.00 | 1.42 | 1.42 | 88 | 1006.5 |
| 20260506215107 | 12 | 298 | 3.2 | 3.2 | 0.00 | 1.42 | 1.42 | 90 | 1006.7 |
| 20260506214604 | 12 | 323 | 3.2 | 4.8 | 0.00 | 1.42 | 1.42 | 89 | 1006.5 |
| 20260506214101 | 12 | 322 | 3.2 | 3.2 | 0.00 | 1.42 | 1.42 | 90 | 1006.3 |
| 20260506213600 | 12 | 329 | 1.6 | 3.2 | 0.00 | 1.42 | 1.42 | 90 | 1006.2 |
| 20260506213056 | 13 | 304 | 3.2 | 3.2 | 0.00 | 1.42 | 1.42 | 91 | 1006.2 |
| 20260506212553 | 13 | 326 | 1.6 | 3.2 | 0.00 | 1.42 | 1.42 | 90 | 1005.6 |
| 20260506212048 | 15 | 305 | 4.8 | 4.8 | 0.00 | 1.42 | 1.42 | 88 | 1005.4 |
| 20260506211544 | 16 | 136 | 1.6 | 1.6 | 0.00 | 1.42 | 1.42 | 88 | 1004.7 |
| 20260506211042 | 16 | 137 | 0.0 | 0.0 | 0.00 | 1.42 | 1.42 | 85 | 1004.5 |
| 20260506210538 | 16 | 137 | 0.0 | 0.0 | 0.00 | 1.42 | 1.42 | 86 | 1004.9 |
| 20260506210035 | 16 | 137 | 0.0 | 0.0 | 0.00 | 1.42 | 1.42 | 87 | 1005.0 |
| 20260506205532 | 16 | 137 | 0.0 | 0.0 | 0.00 | 1.42 | 1.42 | 85 | 1004.8 |
| 20260506205027 | 16 | 137 | 0.0 | 1.6 | 0.00 | 1.42 | 1.42 | 87 | 1004.9 |
| 20260506204525 | 16 | 137 | 0.0 | 0.0 | 0.00 | 1.42 | 1.42 | 84 | 1004.6 |
| 20260506204022 | 16 | 136 | 1.6 | 3.2 | 0.00 | 1.42 | 1.42 | 82 | 1004.6 |
| 20260506203520 | 16 | 140 | 3.2 | 4.8 | 0.00 | 1.42 | 1.42 | 82 | 1004.7 |
| 20260506203016 | 16 | 179 | 0.0 | 0.0 | 0.00 | 1.42 | 1.42 | 83 | 1004.6 |
| 20260506202514 | 17 | 84 | 3.2 | 4.8 | 0.00 | 1.42 | 1.42 | 79 | 1004.8 |
| 20260506202010 | 17 | 134 | 1.6 | 3.2 | 0.00 | 1.42 | 1.42 | 83 | 1004.8 |
| 20260506201508 | 17 | 139 | 1.6 | 1.6 | 0.00 | 1.42 | 1.42 | 80 | 1004.6 |
| 20260506201004 | 17 | 162 | 0.0 | 0.0 | 0.00 | 1.42 | 1.42 | 81 | 1004.9 |
| 20260506200500 | 17 | 220 | 1.6 | 3.2 | 0.00 | 1.42 | 1.42 | 79 | 1004.8 |
| 20260506195956 | 17 | 191 | 0.0 | 0.0 | 0.00 | 1.42 | 1.42 | 80 | 1004.7 |
| 20260506195454 | 17 | 146 | 3.2 | 4.8 | 0.00 | 1.42 | 1.42 | 81 | 1005.0 |
| 20260506194950 | 17 | 126 | 11.3 | 16.1 | 0.00 | 1.42 | 1.42 | 80 | 1004.8 |
| 20260506194448 | 17 | 161 | 1.6 | 3.2 | 0.00 | 1.42 | 1.42 | 79 | 1005.0 |
| 20260506193944 | 17 | 317 | 0.0 | 0.0 | 0.00 | 1.42 | 1.42 | 80 | 1004.9 |
| 20260506193442 | 17 | 158 | 4.8 | 4.8 | 0.00 | 1.42 | 1.42 | 79 | 1005.0 |
| 20260506192938 | 18 | 99 | 3.2 | 3.2 | 0.00 | 1.42 | 1.42 | 80 | 1004.9 |
| 20260506192435 | 18 | 200 | 8.0 | 12.9 | 0.00 | 1.42 | 1.42 | 77 | 1005.2 |
| 20260506191932 | 18 | 185 | 9.7 | 11.3 | 0.00 | 1.42 | 1.42 | 77 | 1005.2 |
| 20260506191428 | 18 | 201 | 4.8 | 4.8 | 0.00 | 1.42 | 1.42 | 78 | 1005.2 |
| 20260506190925 | 18 | 133 | 1.6 | 1.6 | 0.00 | 1.42 | 1.42 | 83 | 1004.8 |
| 20260506190422 | 18 | 168 | 8.0 | 9.7 | 0.13 | 1.42 | 1.42 | 82 | 1005.2 |
| 20260506185919 | 17 | 182 | 1.6 | 3.2 | 0.13 | 1.42 | 1.42 | 85 | 1005.1 |
| 20260506185416 | 17 | 192 | 0.0 | 0.0 | 0.13 | 1.42 | 1.42 | 86 | 1005.4 |
| 20260506184913 | 17 | 158 | 1.6 | 3.2 | 0.00 | 1.40 | 1.40 | 88 | 1005.4 |
| 20260506184410 | 17 | 302 | 3.2 | 3.2 | 0.00 | 1.40 | 1.40 | 84 | 1005.2 |
| 20260506183907 | 17 | 222 | 0.0 | 1.6 | 0.00 | 1.40 | 1.40 | 90 | 1005.4 |
| 20260506183402 | 17 | 119 | 0.0 | 1.6 | 0.00 | 1.40 | 1.40 | 86 | 1005.3 |
| 20260506182900 | 16 | 177 | 0.0 | 0.0 | 0.00 | 1.40 | 1.40 | 86 | 1005.4 |
| 20260506182357 | 16 | 121 | 3.2 | 4.8 | 0.00 | 1.40 | 1.40 | 89 | 1005.4 |
| 20260506181854 | 16 | 111 | 6.4 | 9.7 | 0.00 | 1.40 | 1.40 | 90 | 1005.4 |
| 20260506181352 | 16 | 162 | 1.6 | 3.2 | 0.18 | 1.40 | 1.40 | 86 | 1005.6 |
| 20260506180849 | 16 | 199 | 9.7 | 11.3 | 0.18 | 1.40 | 1.40 | 86 | 1005.7 |
| 20260506180345 | 16 | 141 | 0.0 | 0.0 | 0.18 | 1.40 | 1.40 | 93 | 1005.6 |
| 20260506175841 | 16 | 141 | 0.0 | 0.0 | 0.13 | 1.37 | 1.37 | 90 | 1005.9 |
| 20260506175338 | 16 | 141 | 0.0 | 0.0 | 0.30 | 1.37 | 1.37 | 93 | 1005.6 |
| 20260506174835 | 16 | 141 | 0.0 | 0.0 | 0.30 | 1.35 | 1.35 | 92 | 1005.6 |
| 20260506174333 | 16 | 141 | 0.0 | 0.0 | 0.30 | 1.32 | 1.32 | 92 | 1005.9 |
| 20260506173830 | 16 | 141 | 0.0 | 0.0 | 0.30 | 1.30 | 1.30 | 93 | 1005.6 |
| 20260506173327 | 16 | 141 | 1.6 | 1.6 | 0.13 | 1.27 | 1.27 | 90 | 1005.7 |
| 20260506172824 | 16 | 154 | 0.0 | 0.0 | 0.18 | 1.24 | 1.24 | 92 | 1005.8 |
| 20260506172320 | 16 | 154 | 0.0 | 0.0 | 0.36 | 1.24 | 1.24 | 93 | 1005.7 |
| 20260506171818 | 15 | 154 | 0.0 | 0.0 | 0.30 | 1.22 | 1.22 | 93 | 1005.6 |
| 20260506171315 | 15 | 154 | 0.0 | 0.0 | 0.30 | 1.19 | 1.19 | 93 | 1005.6 |
| 20260506170813 | 16 | 155 | 0.0 | 0.0 | 0.18 | 1.17 | 1.17 | 93 | 1005.8 |
| 20260506170308 | 16 | 136 | 0.0 | 0.0 | 0.13 | 1.14 | 1.14 | 92 | 1005.6 |
| 20260506165808 | 15 | 135 | 0.0 | 0.0 | 0.13 | 1.14 | 1.14 | 93 | 1005.7 |
| 20260506165305 | 15 | 136 | 0.0 | 0.0 | 0.18 | 1.12 | 1.12 | 92 | 1005.8 |
| 20260506164801 | 15 | 136 | 0.0 | 0.0 | 0.30 | 1.12 | 1.12 | 93 | 1005.8 |
| 20260506164258 | 15 | 156 | 0.0 | 0.0 | 0.30 | 1.09 | 1.09 | 94 | 1005.8 |
| 20260506163755 | 15 | 155 | 1.6 | 3.2 | 0.30 | 1.07 | 1.07 | 92 | 1005.7 |
| 20260506163250 | 15 | 156 | 0.0 | 0.0 | 0.30 | 1.04 | 1.04 | 92 | 1005.9 |
| 20260506162746 | 15 | 165 | 3.2 | 6.4 | 0.30 | 1.02 | 1.02 | 91 | 1005.8 |
| 20260506162244 | 15 | 133 | 4.8 | 6.4 | 0.30 | 1.02 | 1.02 | 90 | 1005.8 |
| 20260506161741 | 15 | 142 | 1.6 | 3.2 | 0.30 | 0.99 | 0.99 | 93 | 1006.2 |
| 20260506161238 | 15 | 142 | 1.6 | 1.6 | 0.30 | 0.97 | 0.97 | 91 | 1006.0 |
| 20260506160736 | 15 | 153 | 0.0 | 0.0 | 0.30 | 0.94 | 0.94 | 92 | 1006.3 |
| 20260506160232 | 15 | 154 | 0.0 | 0.0 | 0.36 | 0.91 | 0.91 | 90 | 1006.4 |
| 20260506155731 | 15 | 189 | 6.4 | 9.7 | 0.48 | 0.91 | 0.91 | 87 | 1006.3 |
| 20260506155227 | 15 | 152 | 0.0 | 0.0 | 0.30 | 0.89 | 0.89 | 92 | 1006.4 |
| 20260506153329 | 15 | 119 | 3.2 | 3.2 | 0.30 | 0.79 | 0.79 | 90 | 1006.2 |
| 20260506152826 | 15 | 161 | 3.2 | 3.2 | 0.30 | 0.76 | 0.76 | 90 | 1006.4 |
| 20260506152323 | 15 | 147 | 1.6 | 1.6 | 0.30 | 0.74 | 0.74 | 90 | 1006.5 |
| 20260506151822 | 15 | 136 | 3.2 | 3.2 | 0.13 | 0.71 | 0.71 | 91 | 1006.6 |
| 20260506151318 | 15 | 145 | 0.0 | 0.0 | 0.18 | 0.69 | 0.69 | 93 | 1007.0 |
| 20260506150815 | 15 | 148 | 0.0 | 1.6 | 0.30 | 0.69 | 0.69 | 91 | 1007.0 |
| 20260506150312 | 15 | 147 | 0.0 | 0.0 | 0.30 | 0.66 | 0.66 | 92 | 1007.0 |
| 20260506145809 | 15 | 147 | 0.0 | 0.0 | 0.30 | 0.64 | 0.64 | 92 | 1006.9 |
| 20260506145306 | 15 | 145 | 0.0 | 1.6 | 0.30 | 0.61 | 0.61 | 92 | 1006.9 |
| 20260506144803 | 15 | 119 | 0.0 | 0.0 | 0.36 | 0.58 | 0.58 | 92 | 1007.0 |
| 20260506144259 | 15 | 161 | 3.2 | 3.2 | 0.30 | 0.56 | 0.56 | 91 | 1007.1 |
| 20260506143757 | 15 | 70 | 3.2 | 4.8 | 0.30 | 0.53 | 0.53 | 89 | 1006.9 |
| 20260506143254 | 15 | 175 | 0.0 | 3.2 | 0.30 | 0.51 | 0.51 | 92 | 1007.3 |
| 20260506142752 | 15 | 175 | 1.6 | 1.6 | 0.30 | 0.48 | 0.48 | 93 | 1007.2 |
| 20260506142250 | 15 | 176 | 0.0 | 0.0 | 0.30 | 0.46 | 0.46 | 92 | 1007.4 |
| 20260506141748 | 15 | 115 | 0.0 | 1.6 | 0.30 | 0.43 | 0.43 | 92 | 1007.5 |
| 20260506141246 | 15 | 161 | 1.6 | 3.2 | 0.48 | 0.41 | 0.41 | 90 | 1007.6 |
| 20260506140743 | 15 | 158 | 1.6 | 1.6 | 0.43 | 0.38 | 0.38 | 91 | 1007.5 |
| 20260506140240 | 15 | 158 | 0.0 | 0.0 | 0.48 | 0.36 | 0.36 | 90 | 1007.6 |
| 20260506135737 | 15 | 152 | 1.6 | 1.6 | 0.48 | 0.30 | 0.30 | 89 | 1007.4 |
| 20260506135233 | 15 | 171 | 0.0 | 0.0 | 0.48 | 0.28 | 0.28 | 91 | 1007.5 |
| 20260506134730 | 15 | 101 | 1.6 | 3.2 | 0.30 | 0.23 | 0.23 | 89 | 1007.5 |
| 20260506134227 | 15 | 159 | 0.0 | 1.6 | 0.30 | 0.20 | 0.20 | 89 | 1007.7 |
| 20260506133724 | 15 | 165 | 1.6 | 3.2 | 0.30 | 0.18 | 0.18 | 86 | 1007.4 |
| 20260506133220 | 15 | 158 | 1.6 | 1.6 | 0.13 | 0.15 | 0.15 | 86 | 1007.5 |
| 20260506132718 | 15 | 150 | 1.6 | 1.6 | 0.00 | 0.13 | 0.13 | 87 | 1007.6 |
| 20260506132214 | 15 | 178 | 3.2 | 3.2 | 0.00 | 0.13 | 0.13 | 84 | 1007.1 |
| 20260506131713 | 15 | 162 | 1.6 | 1.6 | 0.00 | 0.13 | 0.13 | 86 | 1007.3 |
| 20260506131208 | 13 | 44 | 8.0 | 11.3 | 0.00 | 0.13 | 0.13 | 88 | 1007.3 |
| 20260506130705 | 12 | 157 | 3.2 | 4.8 | 0.18 | 0.13 | 0.13 | 96 | 1007.3 |
| 20260506130202 | 12 | 285 | 0.0 | 0.0 | 0.18 | 0.13 | 0.13 | 96 | 1007.3 |
| 20260506125700 | 12 | 285 | 1.6 | 3.2 | 0.00 | 0.10 | 0.10 | 96 | 1007.2 |
| 20260506125158 | 12 | 285 | 0.0 | 0.0 | 0.00 | 0.10 | 0.10 | 95 | 1007.3 |
| 20260506124655 | 12 | 285 | 0.0 | 0.0 | 0.00 | 0.10 | 0.10 | 96 | 1007.0 |
| 20260506124153 | 12 | 285 | 0.0 | 0.0 | 0.13 | 0.10 | 0.10 | 96 | 1007.2 |
| 20260506123651 | 12 | 285 | 0.0 | 0.0 | 0.30 | 0.10 | 0.10 | 96 | 1007.4 |
| 20260506123149 | 12 | 285 | 0.0 | 0.0 | 0.18 | 0.08 | 0.08 | 96 | 1007.2 |
| 20260506122646 | 12 | 285 | 0.0 | 0.0 | 0.00 | 0.05 | 0.05 | 96 | 1007.2 |
| 20260506122143 | 12 | 285 | 0.0 | 0.0 | 0.00 | 0.05 | 0.05 | 96 | 1007.2 |
| 20260506121641 | 12 | 285 | 0.0 | 0.0 | 0.00 | 0.05 | 0.05 | 96 | 1007.5 |
| 20260506121137 | 11 | 285 | 0.0 | 1.6 | 0.00 | 0.05 | 0.05 | 96 | 1007.8 |
| 20260506120635 | 11 | 285 | 0.0 | 0.0 | 0.00 | 0.05 | 0.05 | 96 | 1008.0 |
| 20260506120132 | 12 | 285 | 0.0 | 0.0 | 0.13 | 0.05 | 0.05 | 95 | 1007.8 |
| 20260506115631 | 12 | 286 | 0.0 | 0.0 | 0.13 | 0.05 | 0.05 | 96 | 1008.2 |
| 20260506115128 | 12 | 286 | 0.0 | 1.6 | 0.13 | 0.05 | 0.05 | 95 | 1008.2 |
| 20260506114625 | 12 | 286 | 0.0 | 1.6 | 0.00 | 0.03 | 0.03 | 95 | 1008.1 |
| 20260506114123 | 12 | 215 | 0.0 | 0.0 | 0.00 | 0.03 | 0.03 | 95 | 1008.1 |
| 20260506113621 | 12 | 215 | 0.0 | 0.0 | 0.00 | 0.03 | 0.03 | 96 | 1008.0 |
| 20260506113118 | 12 | 216 | 1.6 | 3.2 | 0.00 | 0.03 | 0.03 | 95 | 1007.9 |
| 20260506112614 | 11 | 215 | 1.6 | 1.6 | 0.00 | 0.03 | 0.03 | 96 | 1007.8 |
| 20260506112112 | 11 | 215 | 0.0 | 0.0 | 0.00 | 0.03 | 0.03 | 96 | 1007.8 |
| 20260506111610 | 11 | 214 | 0.0 | 0.0 | 0.00 | 0.03 | 0.03 | 97 | 1007.6 |
| 20260506111107 | 11 | 215 | 0.0 | 1.6 | 0.00 | 0.03 | 0.03 | 96 | 1007.7 |
| 20260506110605 | 11 | 214 | 0.0 | 1.6 | 0.18 | 0.03 | 0.03 | 97 | 1007.6 |
| 20260506105558 | 11 | 214 | 0.0 | 0.0 | 0.00 | 0.00 | 0.00 | 97 | 1007.7 |
| 20260506105055 | 11 | 212 | 0.0 | 0.0 | 0.00 | 0.00 | 0.00 | 97 | 1007.4 |
| 20260506104553 | 11 | 212 | 0.0 | 0.0 | 0.00 | 0.00 | 0.00 | 97 | 1007.1 |
| 20260506104050 | 11 | 212 | 0.0 | 0.0 | 0.00 | 0.00 | 0.00 | 97 | 1007.2 |
| 20260506103548 | 11 | 212 | 0.0 | 1.6 | 0.00 | 0.00 | 0.00 | 97 | 1007.4 |
| 20260506103044 | 11 | 212 | 1.6 | 1.6 | 0.00 | 0.00 | 0.00 | 97 | 1007.3 |
| 20260506102543 | 11 | 212 | 0.0 | 0.0 | 0.00 | 0.00 | 0.00 | 98 | 1007.3 |
| 20260506102040 | 11 | 212 | 0.0 | 0.0 | 0.00 | 0.00 | 0.00 | 98 | 1007.3 |
| 20260506101536 | 11 | 212 | 0.0 | 1.6 | 0.00 | 0.00 | 0.00 | 98 | 1007.2 |
| 20260506101033 | 11 | 212 | 0.0 | 0.0 | 0.00 | 0.00 | 0.00 | 98 | 1007.3 |
| 20260506100532 | 11 | 212 | 0.0 | 0.0 | 0.00 | 0.00 | 0.00 | 98 | 1007.2 |
| 20260506100030 | 11 | 212 | 0.0 | 0.0 | 0.00 | 0.00 | 0.00 | 98 | 1007.3 |
| 20260506095528 | 11 | 212 | 0.0 | 0.0 | 0.00 | 0.00 | 0.00 | 98 | 1007.3 |
| 20260506095024 | 11 | 212 | 0.0 | 0.0 | 0.00 | 0.00 | 0.00 | 98 | 1007.4 |
| 20260506094522 | 11 | 212 | 0.0 | 0.0 | 0.00 | 0.00 | 0.00 | 98 | 1007.2 |
| 20260506094020 | 11 | 212 | 0.0 | 0.0 | 0.00 | 0.00 | 0.00 | 98 | 1007.1 |
| 20260506093518 | 11 | 212 | 0.0 | 0.0 | 0.00 | 0.00 | 0.00 | 98 | 1007.3 |
| 20260506093015 | 11 | 212 | 0.0 | 0.0 | 0.00 | 0.00 | 0.00 | 98 | 1007.1 |
| 20260506092513 | 11 | 212 | 0.0 | 0.0 | 0.00 | 0.00 | 0.00 | 98 | 1007.1 |
| 20260506092009 | 11 | 212 | 0.0 | 0.0 | 0.00 | 0.00 | 0.00 | 98 | 1007.3 |
| 20260506091508 | 11 | 212 | 0.0 | 0.0 | 0.00 | 0.00 | 0.00 | 98 | 1007.0 |
| 20260506091004 | 11 | 212 | 0.0 | 0.0 | 0.00 | 0.00 | 0.00 | 98 | 1007.3 |
| 20260506090502 | 11 | 212 | 0.0 | 0.0 | 0.00 | 0.00 | 0.00 | 98 | 1007.1 |
| 20260506085958 | 11 | 212 | 0.0 | 0.0 | 0.00 | 0.00 | 0.00 | 98 | 1007.2 |
| 20260506085455 | 11 | 212 | 0.0 | 1.6 | 0.00 | 0.00 | 0.00 | 98 | 1007.3 |
| 20260506084951 | 11 | 212 | 0.0 | 0.0 | 0.00 | 0.00 | 0.00 | 98 | 1007.4 |
| 20260506084448 | 11 | 213 | 0.0 | 0.0 | 0.00 | 0.00 | 0.00 | 98 | 1007.4 |
| 20260506083945 | 11 | 213 | 0.0 | 0.0 | 0.00 | 0.00 | 0.00 | 98 | 1007.2 |
| 20260506083442 | 11 | 213 | 0.0 | 0.0 | 0.00 | 0.00 | 0.00 | 98 | 1007.4 |
| 20260506082939 | 11 | 213 | 0.0 | 1.6 | 0.00 | 0.00 | 0.00 | 98 | 1007.5 |
| 20260506082436 | 11 | 213 | 0.0 | 0.0 | 0.00 | 0.00 | 0.00 | 97 | 1007.6 |
| 20260506081932 | 11 | 213 | 0.0 | 0.0 | 0.00 | 0.00 | 0.00 | 97 | 1007.7 |
| 20260506081431 | 11 | 213 | 0.0 | 0.0 | 0.00 | 0.00 | 0.00 | 97 | 1007.7 |
| 20260506080927 | 11 | 213 | 0.0 | 0.0 | 0.00 | 0.00 | 0.00 | 97 | 1007.5 |
| 20260506080424 | 11 | 213 | 0.0 | 0.0 | 0.00 | 0.00 | 0.00 | 97 | 1007.6 |
| 20260506073408 | 11 | 213 | 0.0 | 0.0 | 0.00 | 0.00 | 0.00 | 97 | 1007.9 |
| 20260506072906 | 11 | 213 | 0.0 | 0.0 | 0.00 | 0.00 | 0.00 | 97 | 1008.3 |
| 20260506072403 | 11 | 213 | 0.0 | 0.0 | 0.00 | 0.00 | 0.00 | 97 | 1008.1 |
| 20260506071900 | 11 | 214 | 0.0 | 0.0 | 0.00 | 0.00 | 0.00 | 97 | 1008.2 |
| 20260506071358 | 11 | 214 | 0.0 | 0.0 | 0.00 | 0.00 | 0.00 | 97 | 1008.3 |
| 20260506070854 | 11 | 214 | 0.0 | 0.0 | 0.00 | 0.00 | 0.00 | 97 | 1008.2 |
| 20260506070352 | 11 | 213 | 0.0 | 0.0 | 0.00 | 0.00 | 0.00 | 97 | 1008.3 |
| 20260506062328 | 12 | 214 | 0.0 | 0.0 | 0.00 | 0.00 | 0.00 | 96 | 1008.9 |
| 20260506061825 | 12 | 214 | 0.0 | 0.0 | 0.00 | 0.00 | 0.00 | 96 | 1008.8 |
| 20260506061322 | 12 | 214 | 0.0 | 0.0 | 0.00 | 0.00 | 0.00 | 96 | 1008.8 |
| 20260506060820 | 12 | 214 | 0.0 | 0.0 | 0.00 | 0.00 | 0.00 | 96 | 1008.8 |
| 20260506060318 | 12 | 214 | 0.0 | 0.0 | 0.00 | 0.00 | 0.00 | 96 | 1009.3 |
| 20260506051249 | 12 | 214 | 0.0 | 0.0 | 0.00 | 0.00 | 0.00 | 96 | 1009.5 |
| 20260506050747 | 12 | 214 | 1.6 | 1.6 | 0.00 | 0.00 | 0.00 | 97 | 1009.3 |
| 20260506050244 | 12 | 213 | 0.0 | 0.0 | 0.00 | 0.00 | 0.00 | 97 | 1009.4 |
| 20260506044735 | 12 | 209 | 0.0 | 0.0 | 0.00 | 0.00 | 0.00 | 97 | 1009.3 |
| 20260506044232 | 12 | 209 | 0.0 | 0.0 | 0.00 | 0.00 | 0.00 | 97 | 1009.4 |
| 20260506043729 | 12 | 209 | 0.0 | 0.0 | 0.00 | 0.00 | 0.00 | 96 | 1009.3 |
| 20260506043227 | 12 | 208 | 0.0 | 0.0 | 0.00 | 0.00 | 0.00 | 96 | 1009.4 |
| 20260506042725 | 12 | 209 | 0.0 | 0.0 | 0.00 | 0.00 | 0.00 | 96 | 1009.4 |
| 20260506042223 | 12 | 209 | 0.0 | 0.0 | 0.00 | 0.00 | 0.00 | 96 | 1009.4 |
| 20260506041722 | 12 | 209 | 0.0 | 0.0 | 0.00 | 0.00 | 0.00 | 96 | 1009.4 |
| 20260506041218 | 12 | 209 | 0.0 | 0.0 | 0.00 | 0.00 | 0.00 | 96 | 1009.4 |
| 20260506040716 | 13 | 208 | 0.0 | 0.0 | 0.00 | 0.00 | 0.00 | 96 | 1009.3 |
| 20260506040213 | 13 | 208 | 0.0 | 0.0 | 0.00 | 0.00 | 0.00 | 95 | 1009.3 |
| 20260506035709 | 13 | 208 | 0.0 | 0.0 | 0.00 | 0.13 | 0.13 | 95 | 1009.4 |
| 20260506035206 | 13 | 208 | 0.0 | 0.0 | 0.00 | 0.13 | 0.13 | 95 | 1009.4 |
| 20260506034703 | 13 | 208 | 0.0 | 0.0 | 0.00 | 0.13 | 0.13 | 95 | 1009.2 |
| 20260506034201 | 13 | 208 | 0.0 | 0.0 | 0.00 | 0.13 | 0.13 | 95 | 1009.4 |
| 20260506033658 | 13 | 208 | 0.0 | 0.0 | 0.00 | 0.13 | 0.13 | 95 | 1009.0 |
| 20260506033154 | 13 | 208 | 0.0 | 0.0 | 0.00 | 0.13 | 0.13 | 95 | 1009.0 |
| 20260506032651 | 13 | 208 | 0.0 | 0.0 | 0.00 | 0.13 | 0.13 | 95 | 1009.0 |
| 20260506032148 | 13 | 208 | 0.0 | 0.0 | 0.00 | 0.13 | 0.13 | 95 | 1009.0 |
| 20260506031645 | 13 | 208 | 0.0 | 0.0 | 0.00 | 0.13 | 0.13 | 95 | 1008.8 |
| 20260506031142 | 14 | 208 | 0.0 | 0.0 | 0.00 | 0.13 | 0.13 | 95 | 1008.8 |
| 20260506030641 | 14 | 208 | 0.0 | 0.0 | 0.00 | 0.13 | 0.13 | 94 | 1008.9 |
| 20260506030138 | 14 | 208 | 0.0 | 0.0 | 0.00 | 0.13 | 0.13 | 94 | 1009.0 |
| 20260506025634 | 14 | 208 | 0.0 | 0.0 | 0.13 | 0.13 | 0.13 | 94 | 1008.8 |
| 20260506025130 | 14 | 208 | 0.0 | 0.0 | 0.13 | 0.13 | 0.13 | 94 | 1008.8 |
| 20260506024628 | 14 | 208 | 0.0 | 0.0 | 0.00 | 0.10 | 0.10 | 93 | 1008.9 |
| 20260506024124 | 14 | 208 | 0.0 | 0.0 | 0.00 | 0.10 | 0.10 | 93 | 1009.2 |
| 20260506023621 | 14 | 208 | 0.0 | 0.0 | 0.00 | 0.10 | 0.10 | 93 | 1009.0 |
| 20260506023118 | 14 | 208 | 1.6 | 1.6 | 0.00 | 0.10 | 0.10 | 93 | 1008.8 |
| 20260506022615 | 14 | 208 | 0.0 | 0.0 | 0.00 | 0.10 | 0.10 | 93 | 1008.8 |
| 20260506022113 | 14 | 208 | 0.0 | 0.0 | 0.00 | 0.10 | 0.10 | 92 | 1009.2 |
| 20260506021610 | 15 | 209 | 0.0 | 0.0 | 0.18 | 0.10 | 0.10 | 92 | 1009.4 |
| 20260506021107 | 15 | 209 | 1.6 | 1.6 | 0.36 | 0.10 | 0.10 | 91 | 1008.9 |
| 20260506020604 | 15 | 209 | 0.0 | 0.0 | 0.30 | 0.08 | 0.08 | 90 | 1009.5 |
| 20260506015559 | 15 | 208 | 0.0 | 0.0 | 0.00 | 0.03 | 0.03 | 86 | 1009.2 |
| 20260506015056 | 15 | 208 | 0.0 | 0.0 | 0.00 | 0.03 | 0.03 | 85 | 1008.6 |
| 20260506014554 | 15 | 208 | 0.0 | 0.0 | 0.00 | 0.03 | 0.03 | 84 | 1008.7 |
| 20260506014049 | 15 | 208 | 1.6 | 1.6 | 0.00 | 0.03 | 0.03 | 85 | 1008.6 |
| 20260506013547 | 15 | 208 | 0.0 | 0.0 | 0.00 | 0.03 | 0.03 | 85 | 1008.3 |
| 20260506013044 | 15 | 208 | 0.0 | 1.6 | 0.00 | 0.03 | 0.03 | 86 | 1008.4 |
| 20260506012540 | 15 | 208 | 0.0 | 0.0 | 0.00 | 0.03 | 0.03 | 85 | 1008.4 |
| 20260506012037 | 15 | 209 | 1.6 | 1.6 | 0.00 | 0.03 | 0.03 | 85 | 1008.2 |
| 20260506011535 | 15 | 209 | 1.6 | 1.6 | 0.00 | 0.03 | 0.03 | 86 | 1008.4 |
| 20260506011031 | 15 | 209 | 1.6 | 3.2 | 0.00 | 0.03 | 0.03 | 85 | 1008.2 |
| 20260506010531 | 16 | 209 | 0.0 | 0.0 | 0.00 | 0.03 | 0.03 | 85 | 1008.4 |
| 20260506010026 | 16 | 209 | 0.0 | 0.0 | 0.00 | 0.03 | 0.03 | 85 | 1008.2 |
| 20260506005524 | 16 | 209 | 0.0 | 0.0 | 0.00 | 0.03 | 0.03 | 84 | 1008.3 |
| 20260506005019 | 16 | 209 | 0.0 | 0.0 | 0.00 | 0.03 | 0.03 | 84 | 1008.2 |
| 20260506004517 | 16 | 209 | 0.0 | 0.0 | 0.00 | 0.03 | 0.03 | 84 | 1008.1 |
| 20260506004013 | 16 | 209 | 0.0 | 0.0 | 0.00 | 0.03 | 0.03 | 82 | 1008.0 |
| 20260506003510 | 16 | 209 | 0.0 | 0.0 | 0.00 | 0.03 | 0.03 | 82 | 1008.2 |
| 20260506003006 | 16 | 209 | 0.0 | 0.0 | 0.00 | 0.03 | 0.03 | 81 | 1008.1 |
| 20260506002502 | 16 | 209 | 0.0 | 0.0 | 0.00 | 0.03 | 0.03 | 82 | 1008.2 |
| 20260506001958 | 16 | 209 | 0.0 | 0.0 | 0.00 | 0.03 | 0.03 | 81 | 1007.9 |
| 20260506001454 | 16 | 209 | 0.0 | 0.0 | 0.00 | 0.03 | 0.03 | 81 | 1007.9 |
| 20260506000952 | 16 | 209 | 0.0 | 0.0 | 0.00 | 0.03 | 0.03 | 81 | 1007.9 |
| 20260506000449 | 16 | 209 | 0.0 | 0.0 | 0.00 | 0.03 | 0.03 | 80 | 1007.7 |
| 20260505235946 | 16 | 209 | 0.0 | 0.0 | 0.00 | 0.03 | 0.03 | 80 | 1007.6 |
| 20260505235444 | 16 | 209 | 0.0 | 0.0 | 0.00 | 0.03 | 0.03 | 79 | 1007.8 |
| 20260505234941 | 16 | 209 | 0.0 | 0.0 | 0.00 | 0.03 | 0.03 | 79 | 1007.7 |
| 20260505234438 | 16 | 209 | 0.0 | 0.0 | 0.00 | 0.03 | 0.03 | 79 | 1007.4 |
| 20260505233935 | 16 | 209 | 0.0 | 0.0 | 0.00 | 0.03 | 0.03 | 79 | 1007.6 |
| 20260505233433 | 17 | 209 | 0.0 | 0.0 | 0.00 | 0.03 | 0.03 | 77 | 1007.4 |
| 20260505232930 | 17 | 209 | 0.0 | 0.0 | 0.00 | 0.03 | 0.03 | 75 | 1007.3 |
| 20260505232428 | 17 | 209 | 0.0 | 0.0 | 0.00 | 0.03 | 0.03 | 77 | 1007.3 |
| 20260505231924 | 17 | 209 | 0.0 | 1.6 | 0.00 | 0.03 | 0.03 | 77 | 1007.2 |
| 20260505231422 | 17 | 209 | 0.0 | 0.0 | 0.00 | 0.03 | 0.03 | 76 | 1007.4 |
| 20260505230920 | 17 | 209 | 0.0 | 0.0 | 0.00 | 0.03 | 0.03 | 74 | 1007.2 |
| 20260505230417 | 17 | 210 | 0.0 | 1.6 | 0.00 | 0.03 | 0.03 | 73 | 1007.2 |
| 20260505225914 | 18 | 210 | 0.0 | 0.0 | 0.00 | 0.03 | 0.03 | 72 | 1007.5 |
| 20260505225411 | 18 | 210 | 0.0 | 1.6 | 0.00 | 0.03 | 0.03 | 70 | 1007.5 |
| 20260505224906 | 18 | 210 | 1.6 | 3.2 | 0.00 | 0.03 | 0.03 | 70 | 1007.5 |
| 20260505224404 | 18 | 314 | 0.0 | 0.0 | 0.00 | 0.03 | 0.03 | 70 | 1007.3 |
| 20260505223900 | 18 | 314 | 0.0 | 0.0 | 0.00 | 0.03 | 0.03 | 70 | 1007.2 |
| 20260505223357 | 18 | 314 | 0.0 | 1.6 | 0.00 | 0.03 | 0.03 | 65 | 1007.0 |
| 20260505222853 | 18 | 315 | 0.0 | 0.0 | 0.00 | 0.03 | 0.03 | 68 | 1007.1 |